Spring Hill, California
Current Conditions -  °F | °C
As of 10:15 PM on Saturday 20 Dec 2014 (Local Time) from KGOO Reporting Station
Overcast Overcast  
Wind Chill: 40°   Ceiling: 300
Heat Index: 45°   Visibility: 2mi
Dew Point: 45°   Wind: 9mph
Humidity: 100%   Direction: 140°SE
Pressure: 30.26"   Gusts: NA
Location:  39.2183°N, 120.924°W
Report Text: KGOO 210615Z AUTO 14008KT 2SM BKN003 OVC009 07/07 A3026 RMK AO1
Loading
Personal Weather Stations






























Interactive Weather Map New forecast layout! Learn more

10-Day Weather Forecast

Advertisements
Track Severe Weather on mobile